sensor_id;sensor_type;location;lat;lon;timestamp;pressure;altitude;pressure_sealevel;temperature;humidity
56518;BME280;42419;48.760;2.322;2023-04-01T00:00:26;99579.63;;;24.74;31.50
56518;BME280;42419;48.760;2.322;2023-04-01T00:02:52;99578.75;;;24.73;31.60
56518;BME280;42419;48.760;2.322;2023-04-01T00:05:17;99581.59;;;24.72;31.71
56518;BME280;42419;48.760;2.322;2023-04-01T00:07:43;99587.81;;;24.72;31.52
56518;BME280;42419;48.760;2.322;2023-04-01T00:10:11;99576.22;;;24.72;31.15
56518;BME280;42419;48.760;2.322;2023-04-01T00:12:38;99577.78;;;24.74;31.78
56518;BME280;42419;48.760;2.322;2023-04-01T00:15:05;99583.06;;;24.76;31.73
56518;BME280;42419;48.760;2.322;2023-04-01T00:17:31;99582.94;;;24.77;31.36
56518;BME280;42419;48.760;2.322;2023-04-01T00:19:57;99589.19;;;24.78;31.70
56518;BME280;42419;48.760;2.322;2023-04-01T00:22:23;99574.72;;;24.68;31.96
56518;BME280;42419;48.760;2.322;2023-04-01T00:24:49;99582.81;;;24.79;31.87
56518;BME280;42419;48.760;2.322;2023-04-01T00:27:14;99569.47;;;24.66;31.85
56518;BME280;42419;48.760;2.322;2023-04-01T00:29:45;99595.41;;;24.78;31.48
56518;BME280;42419;48.760;2.322;2023-04-01T00:32:11;99585.97;;;24.73;31.73
56518;BME280;42419;48.760;2.322;2023-04-01T00:34:37;99586.72;;;24.75;31.59
56518;BME280;42419;48.760;2.322;2023-04-01T00:37:03;99590.91;;;24.79;31.98
56518;BME280;42419;48.760;2.322;2023-04-01T00:39:29;99599.94;;;24.78;31.41
56518;BME280;42419;48.760;2.322;2023-04-01T00:41:54;99583.78;;;24.78;31.56
56518;BME280;42419;48.760;2.322;2023-04-01T00:44:27;99590.91;;;24.79;31.96
56518;BME280;42419;48.760;2.322;2023-04-01T00:46:53;99588.22;;;24.79;31.44
56518;BME280;42419;48.760;2.322;2023-04-01T00:49:21;99567.84;;;24.64;31.61
56518;BME280;42419;48.760;2.322;2023-04-01T00:51:51;99571.78;;;24.71;31.41
56518;BME280;42419;48.760;2.322;2023-04-01T00:54:19;99586.38;;;24.79;31.95
56518;BME280;42419;48.760;2.322;2023-04-01T00:56:48;99580.50;;;24.74;31.82
56518;BME280;42419;48.760;2.322;2023-04-01T00:59:22;99588.22;;;24.79;31.86
56518;BME280;42419;48.760;2.322;2023-04-01T01:01:48;99588.09;;;24.80;31.47
56518;BME280;42419;48.760;2.322;2023-04-01T01:04:28;99587.00;;;24.83;31.87
56518;BME280;42419;48.760;2.322;2023-04-01T01:07:04;99592.25;;;24.84;31.49
56518;BME280;42419;48.760;2.322;2023-04-01T01:09:45;99570.69;;;24.73;31.84
56518;BME280;42419;48.760;2.322;2023-04-01T01:12:27;99587.00;;;24.83;31.83
56518;BME280;42419;48.760;2.322;2023-04-01T01:15:12;99588.72;;;24.84;31.50
56518;BME280;42419;48.760;2.322;2023-04-01T01:28:59;99592.25;;;24.84;31.76
56518;BME280;42419;48.760;2.322;2023-04-01T01:37:22;99591.41;;;24.84;31.93
56518;BME280;42419;48.760;2.322;2023-04-01T01:39:54;99593.13;;;24.85;32.22
56518;BME280;42419;48.760;2.322;2023-04-01T01:42:22;99591.41;;;24.84;32.18
56518;BME280;42419;48.760;2.322;2023-04-01T01:44:49;99597.88;;;24.81;31.76
56518;BME280;42419;48.760;2.322;2023-04-01T01:47:17;99615.53;;;24.85;32.08
56518;BME280;42419;48.760;2.322;2023-04-01T01:49:44;99584.91;;;24.75;31.78
56518;BME280;42419;48.760;2.322;2023-04-01T01:52:11;99604.88;;;24.84;31.93
56518;BME280;42419;48.760;2.322;2023-04-01T01:54:47;99602.91;;;24.86;32.05
56518;BME280;42419;48.760;2.322;2023-04-01T01:57:13;99604.88;;;24.84;31.77
56518;BME280;42419;48.760;2.322;2023-04-01T01:59:40;99614.66;;;24.85;32.19
56518;BME280;42419;48.760;2.322;2023-04-01T02:02:09;99607.56;;;24.84;31.98
56518;BME280;42419;48.760;2.322;2023-04-01T02:04:37;99608.41;;;24.84;32.36
56518;BME280;42419;48.760;2.322;2023-04-01T02:07:07;99611.97;;;24.85;31.75
56518;BME280;42419;48.760;2.322;2023-04-01T02:09:34;99607.66;;;24.82;31.76
56518;BME280;42419;48.760;2.322;2023-04-01T02:12:06;99607.56;;;24.84;32.14
56518;BME280;42419;48.760;2.322;2023-04-01T02:17:15;99611.13;;;24.84;31.89
56518;BME280;42419;48.760;2.322;2023-04-01T02:20:09;99599.38;;;24.85;32.11
56518;BME280;42419;48.760;2.322;2023-04-01T02:22:42;99601.94;;;24.87;31.52
56518;BME280;42419;48.760;2.322;2023-04-01T02:25:12;99601.06;;;24.86;31.88
56518;BME280;42419;48.760;2.322;2023-04-01T02:27:40;99610.97;;;24.86;31.90
56518;BME280;42419;48.760;2.322;2023-04-01T02:30:08;99609.28;;;24.85;31.94
56518;BME280;42419;48.760;2.322;2023-04-01T02:32:35;99618.09;;;24.87;31.45
56518;BME280;42419;48.760;2.322;2023-04-01T02:35:05;99598.22;;;24.77;31.54
56518;BME280;42419;48.760;2.322;2023-04-01T02:37:31;99621.75;;;24.86;31.42
56518;BME280;42419;48.760;2.322;2023-04-01T02:40:06;99612.84;;;24.85;31.25
56518;BME280;42419;48.760;2.322;2023-04-01T02:42:33;99601.41;;;24.82;31.60
56518;BME280;42419;48.760;2.322;2023-04-01T02:44:58;99626.16;;;24.87;31.86
56518;BME280;42419;48.760;2.322;2023-04-01T02:47:24;99614.78;;;24.83;31.87
56518;BME280;42419;48.760;2.322;2023-04-01T02:49:49;99625.28;;;24.86;31.57
56518;BME280;42419;48.760;2.322;2023-04-01T02:52:14;99610.34;;;24.82;31.87
56518;BME280;42419;48.760;2.322;2023-04-01T02:54:40;99633.38;;;24.86;31.76
56518;BME280;42419;48.760;2.322;2023-04-01T02:57:06;99624.34;;;24.87;31.69
56518;BME280;42419;48.760;2.322;2023-04-01T02:59:31;99618.94;;;24.87;31.38
56518;BME280;42419;48.760;2.322;2023-04-01T03:01:57;99628.84;;;24.87;31.28
56518;BME280;42419;48.760;2.322;2023-04-01T03:04:22;99629.59;;;24.89;31.14
56518;BME280;42419;48.760;2.322;2023-04-01T03:06:47;99627.88;;;24.88;31.76
56518;BME280;42419;48.760;2.322;2023-04-01T03:09:12;99637.69;;;24.89;31.71
56518;BME280;42419;48.760;2.322;2023-04-01T03:11:38;99641.34;;;24.88;31.66
56518;BME280;42419;48.760;2.322;2023-04-01T03:14:03;99632.03;;;24.81;31.80
56518;BME280;42419;48.760;2.322;2023-04-01T03:16:28;99638.66;;;24.88;31.61
56518;BME280;42419;48.760;2.322;2023-04-01T03:18:54;99638.66;;;24.88;31.42
56518;BME280;42419;48.760;2.322;2023-04-01T03:21:23;99640.38;;;24.89;31.41
56518;BME280;42419;48.760;2.322;2023-04-01T03:23:49;99641.34;;;24.88;31.06
56518;BME280;42419;48.760;2.322;2023-04-01T03:26:16;99639.53;;;24.88;31.33
56518;BME280;42419;48.760;2.322;2023-04-01T03:28:41;99641.34;;;24.88;31.08
56518;BME280;42419;48.760;2.322;2023-04-01T03:31:06;99641.34;;;24.88;31.15
56518;BME280;42419;48.760;2.322;2023-04-01T03:33:32;99643.19;;;24.87;31.42
56518;BME280;42419;48.760;2.322;2023-04-01T03:35:58;99650.28;;;24.88;31.74
56518;BME280;42419;48.760;2.322;2023-04-01T03:38:23;99621.31;;;24.68;31.18
56518;BME280;42419;48.760;2.322;2023-04-01T03:40:48;99642.56;;;24.84;31.80
56518;BME280;42419;48.760;2.322;2023-04-01T03:43:14;99650.41;;;24.87;31.28
56518;BME280;42419;48.760;2.322;2023-04-01T03:45:49;99641.34;;;24.88;31.55
56518;BME280;42419;48.760;2.322;2023-04-01T03:48:14;99632.38;;;24.76;31.00
56518;BME280;42419;48.760;2.322;2023-04-01T03:50:40;99655.91;;;24.85;31.21
56518;BME280;42419;48.760;2.322;2023-04-01T03:53:06;99655.91;;;24.85;31.34
56518;BME280;42419;48.760;2.322;2023-04-01T03:55:31;99660.44;;;24.85;31.32
56518;BME280;42419;48.760;2.322;2023-04-01T03:57:56;99636.06;;;24.75;31.33
56518;BME280;42419;48.760;2.322;2023-04-01T04:00:22;99657.84;;;24.83;31.16
56518;BME280;42419;48.760;2.322;2023-04-01T04:02:47;99654.19;;;24.84;31.60
56518;BME280;42419;48.760;2.322;2023-04-01T04:05:13;99630.16;;;24.70;31.31
56518;BME280;42419;48.760;2.322;2023-04-01T04:07:39;99664.97;;;24.84;31.21
56518;BME280;42419;48.760;2.322;2023-04-01T04:10:05;99660.78;;;24.80;31.63
56518;BME280;42419;48.760;2.322;2023-04-01T04:12:30;99654.53;;;24.80;31.47
56518;BME280;42419;48.760;2.322;2023-04-01T04:14:56;99647.91;;;24.73;31.38
56518;BME280;42419;48.760;2.322;2023-04-01T04:17:21;99663.25;;;24.83;31.55
56518;BME280;42419;48.760;2.322;2023-04-01T04:19:46;99671.31;;;24.83;31.34
56518;BME280;42419;48.760;2.322;2023-04-01T04:22:12;99669.38;;;24.85;31.51
56518;BME280;42419;48.760;2.322;2023-04-01T04:24:37;99674.63;;;24.87;31.40
56518;BME280;42419;48.760;2.322;2023-04-01T04:27:03;99674.63;;;24.87;31.17
56518;BME280;42419;48.760;2.322;2023-04-01T04:29:29;99657.69;;;24.74;31.35
56518;BME280;42419;48.760;2.322;2023-04-01T04:31:55;99681.75;;;24.88;31.25
56518;BME280;42419;48.760;2.322;2023-04-01T04:34:20;99676.34;;;24.88;30.86
56518;BME280;42419;48.760;2.322;2023-04-01T04:36:47;99678.06;;;24.89;31.09
56518;BME280;42419;48.760;2.322;2023-04-01T04:39:13;99683.47;;;24.89;31.36
56518;BME280;42419;48.760;2.322;2023-04-01T04:41:38;99683.56;;;24.87;31.36
56518;BME280;42419;48.760;2.322;2023-04-01T04:44:04;99673.41;;;24.80;31.19
56518;BME280;42419;48.760;2.322;2023-04-01T04:46:29;99688.94;;;24.87;31.01
56518;BME280;42419;48.760;2.322;2023-04-01T04:48:55;99703.28;;;24.88;31.25
56518;BME280;42419;48.760;2.322;2023-04-01T04:51:22;99696.16;;;24.87;31.12
56518;BME280;42419;48.760;2.322;2023-04-01T04:53:49;99709.63;;;24.87;30.90
56518;BME280;42419;48.760;2.322;2023-04-01T04:56:21;99688.09;;;24.87;30.99
56518;BME280;42419;48.760;2.322;2023-04-01T04:58:46;99694.44;;;24.86;31.16
56518;BME280;42419;48.760;2.322;2023-04-01T05:01:14;99676.53;;;24.74;31.25
56518;BME280;42419;48.760;2.322;2023-04-01T05:03:41;99683.81;;;24.84;31.03
56518;BME280;42419;48.760;2.322;2023-04-01T05:06:08;99704.25;;;24.87;31.29
56518;BME280;42419;48.760;2.322;2023-04-01T05:08:33;99703.19;;;24.89;31.32
56518;BME280;42419;48.760;2.322;2023-04-01T05:11:00;99699.63;;;24.89;31.17
56518;BME280;42419;48.760;2.322;2023-04-01T05:13:26;99680.97;;;24.86;30.88
56518;BME280;42419;48.760;2.322;2023-04-01T05:15:51;99699.63;;;24.89;30.82
56518;BME280;42419;48.760;2.322;2023-04-01T05:18:17;99704.16;;;24.88;31.02
56518;BME280;42419;48.760;2.322;2023-04-01T05:20:47;99707.69;;;24.89;31.01
56518;BME280;42419;48.760;2.322;2023-04-01T05:23:12;99711.97;;;24.91;30.60
56518;BME280;42419;48.760;2.322;2023-04-01T05:25:38;99702.03;;;24.81;31.01
56518;BME280;42419;48.760;2.322;2023-04-01T05:28:03;99719.19;;;24.91;30.91
56518;BME280;42419;48.760;2.322;2023-04-01T05:30:29;99715.53;;;24.92;30.68
56518;BME280;42419;48.760;2.322;2023-04-01T05:32:54;99713.19;;;24.87;31.09
56518;BME280;42419;48.760;2.322;2023-04-01T05:35:20;99722.66;;;24.93;31.14
56518;BME280;42419;48.760;2.322;2023-04-01T05:37:45;99716.13;;;24.84;30.79
56518;BME280;42419;48.760;2.322;2023-04-01T05:40:10;99728.91;;;24.93;31.30
56518;BME280;42419;48.760;2.322;2023-04-01T05:42:36;99733.41;;;24.93;31.01
56518;BME280;42419;48.760;2.322;2023-04-01T05:45:01;99728.75;;;24.95;30.65
56518;BME280;42419;48.760;2.322;2023-04-01T05:47:26;99728.75;;;24.95;30.70
56518;BME280;42419;48.760;2.322;2023-04-01T05:49:52;99738.56;;;24.96;30.92
56518;BME280;42419;48.760;2.322;2023-04-01T05:52:17;99731.59;;;24.93;31.05
56518;BME280;42419;48.760;2.322;2023-04-01T05:54:42;99738.56;;;24.96;30.67
56518;BME280;42419;48.760;2.322;2023-04-01T05:57:08;99746.63;;;24.96;30.86
56518;BME280;42419;48.760;2.322;2023-04-01T05:59:33;99742.00;;;24.98;30.50
56518;BME280;42419;48.760;2.322;2023-04-01T06:02:00;99744.09;;;24.94;30.48
56518;BME280;42419;48.760;2.322;2023-04-01T06:04:28;99743.50;;;25.02;30.32
56518;BME280;42419;48.760;2.322;2023-04-01T06:06:57;99750.59;;;25.03;30.36
56518;BME280;42419;48.760;2.322;2023-04-01T06:09:27;99755.75;;;25.06;30.12
56518;BME280;42419;48.760;2.322;2023-04-01T06:20:00;99771.50;;;25.12;30.39
56518;BME280;42419;48.760;2.322;2023-04-01T06:22:42;99779.44;;;25.14;30.25
56518;BME280;42419;48.760;2.322;2023-04-01T06:33:02;99784.09;;;24.99;30.94
56518;BME280;42419;48.760;2.322;2023-04-01T06:38:24;99789.00;;;24.94;31.27
56518;BME280;42419;48.760;2.322;2023-04-01T06:44:16;99788.34;;;24.90;31.33
56518;BME280;42419;48.760;2.322;2023-04-01T06:52:48;99801.72;;;24.92;31.58
56518;BME280;42419;48.760;2.322;2023-04-01T06:58:04;99786.25;;;24.83;31.91
56518;BME280;42419;48.760;2.322;2023-04-01T07:00:39;99789.56;;;24.86;31.96
56518;BME280;42419;48.760;2.322;2023-04-01T07:03:20;99796.31;;;24.92;32.51
56518;BME280;42419;48.760;2.322;2023-04-01T07:05:46;99807.09;;;24.92;31.97
56518;BME280;42419;48.760;2.322;2023-04-01T07:08:17;99804.50;;;24.90;32.20
56518;BME280;42419;48.760;2.322;2023-04-01T07:14:36;99801.72;;;24.92;31.78
56518;BME280;42419;48.760;2.322;2023-04-01T07:16:38;99809.88;;;24.90;31.63
56518;BME280;42419;48.760;2.322;2023-04-01T07:19:12;99809.06;;;24.90;31.90
56518;BME280;42419;48.760;2.322;2023-04-01T07:21:43;99813.44;;;24.91;32.14
56518;BME280;42419;48.760;2.322;2023-04-01T07:24:16;99810.22;;;24.86;32.00
56518;BME280;42419;48.760;2.322;2023-04-01T07:26:44;99802.69;;;24.91;32.40
56518;BME280;42419;48.760;2.322;2023-04-01T07:29:12;99824.00;;;24.94;32.17
56518;BME280;42419;48.760;2.322;2023-04-01T07:45:40;99821.31;;;24.94;31.55
56518;BME280;42419;48.760;2.322;2023-04-01T07:51:11;99845.66;;;24.92;31.64
56518;BME280;42419;48.760;2.322;2023-04-01T07:53:48;99849.56;;;24.88;31.87
56518;BME280;42419;48.760;2.322;2023-04-01T08:04:28;99842.69;;;24.84;31.98
56518;BME280;42419;48.760;2.322;2023-04-01T08:07:17;99849.66;;;24.87;33.54
56518;BME280;42419;48.760;2.322;2023-04-01T08:09:59;99852.47;;;24.85;32.79
56518;BME280;42419;48.760;2.322;2023-04-01T08:12:52;99864.09;;;24.86;33.33
56518;BME280;42419;48.760;2.322;2023-04-01T08:15:28;99836.44;;;24.84;31.87
56518;BME280;42419;48.760;2.322;2023-04-01T08:21:01;99855.19;;;24.85;31.25
56518;BME280;42419;48.760;2.322;2023-04-01T08:23:33;99857.88;;;24.85;31.34
56518;BME280;42419;48.760;2.322;2023-04-01T08:26:31;99777.41;;;24.44;31.07
56518;BME280;42419;48.760;2.322;2023-04-01T08:29:03;99849.78;;;24.85;30.87
56518;BME280;42419;48.760;2.322;2023-04-01T08:31:37;99856.53;;;24.91;29.87
56518;BME280;42419;48.760;2.322;2023-04-01T08:34:14;99854.84;;;24.90;29.34
56518;BME280;42419;48.760;2.322;2023-04-01T08:36:47;99840.09;;;24.83;29.89
56518;BME280;42419;48.760;2.322;2023-04-01T08:39:18;99850.34;;;24.78;30.59
56518;BME280;42419;48.760;2.322;2023-04-01T08:42:01;99860.97;;;24.92;32.19
56518;BME280;42419;48.760;2.322;2023-04-01T08:44:56;99867.19;;;24.92;29.93
56518;BME280;42419;48.760;2.322;2023-04-01T08:56:03;99876.00;;;24.71;29.52
56518;BME280;42419;48.760;2.322;2023-04-01T08:58:54;99872.16;;;24.62;30.81
56518;BME280;42419;48.760;2.322;2023-04-01T09:02:00;99876.44;;;24.65;28.64
56518;BME280;42419;48.760;2.322;2023-04-01T09:04:50;99854.94;;;24.52;29.22
56518;BME280;42419;48.760;2.322;2023-04-01T09:08:16;99893.44;;;24.65;28.98
56518;BME280;42419;48.760;2.322;2023-04-01T09:28:43;99871.50;;;24.58;29.01
56518;BME280;42419;48.760;2.322;2023-04-01T09:31:20;99868.81;;;24.58;28.96
56518;BME280;42419;48.760;2.322;2023-04-01T09:41:42;99883.00;;;24.60;29.08
56518;BME280;42419;48.760;2.322;2023-04-01T09:44:32;99882.78;;;24.64;28.77
56518;BME280;42419;48.760;2.322;2023-04-01T10:10:00;99886.25;;;24.53;28.59
56518;BME280;42419;48.760;2.322;2023-04-01T10:13:28;99892.03;;;24.47;26.81
56518;BME280;42419;48.760;2.322;2023-04-01T10:21:25;99887.53;;;24.35;26.96
56518;BME280;42419;48.760;2.322;2023-04-01T10:29:53;99874.00;;;24.36;27.50
56518;BME280;42419;48.760;2.322;2023-04-01T10:32:36;99892.81;;;24.36;27.17
56518;BME280;42419;48.760;2.322;2023-04-01T10:52:23;99892.97;;;23.83;27.67
56518;BME280;42419;48.760;2.322;2023-04-01T10:55:10;99870.78;;;23.66;28.05
56518;BME280;42419;48.760;2.322;2023-04-01T11:01:39;99883.59;;;23.76;26.87
56518;BME280;42419;48.760;2.322;2023-04-01T11:07:43;99883.03;;;23.70;27.52
56518;BME280;42419;48.760;2.322;2023-04-01T11:18:43;99867.13;;;23.67;27.21
56518;BME280;42419;48.760;2.322;2023-04-01T11:29:32;99870.13;;;23.63;29.61
56518;BME280;42419;48.760;2.322;2023-04-01T11:38:19;99865.16;;;23.57;31.63
56518;BME280;42419;48.760;2.322;2023-04-01T11:40:54;99813.06;;;23.20;33.31
56518;BME280;42419;48.760;2.322;2023-04-01T11:43:46;99867.22;;;23.53;34.01
56518;BME280;42419;48.760;2.322;2023-04-01T11:46:39;99871.84;;;23.51;34.79
56518;BME280;42419;48.760;2.322;2023-04-01T11:49:36;99878.06;;;23.52;36.13
56518;BME280;42419;48.760;2.322;2023-04-01T11:57:35;99887.09;;;23.51;35.88
56518;BME280;42419;48.760;2.322;2023-04-01T12:13:47;99866.19;;;23.68;35.79
56518;BME280;42419;48.760;2.322;2023-04-01T12:22:17;99872.09;;;23.73;34.70
56518;BME280;42419;48.760;2.322;2023-04-01T12:25:11;99876.50;;;23.74;34.97
56518;BME280;42419;48.760;2.322;2023-04-01T12:27:43;99876.50;;;23.74;35.25
56518;BME280;42419;48.760;2.322;2023-04-01T12:30:14;99882.09;;;23.71;34.33
56518;BME280;42419;48.760;2.322;2023-04-01T12:33:04;99875.19;;;23.67;34.39
56518;BME280;42419;48.760;2.322;2023-04-01T12:39:08;99872.50;;;23.67;34.44
56518;BME280;42419;48.760;2.322;2023-04-01T12:42:03;99882.63;;;23.64;34.34
56518;BME280;42419;48.760;2.322;2023-04-01T12:45:01;99871.63;;;23.54;34.71
56518;BME280;42419;48.760;2.322;2023-04-01T12:47:59;99874.66;;;23.62;33.96
56518;BME280;42419;48.760;2.322;2023-04-01T12:55:44;99880.78;;;23.64;33.47
56518;BME280;42419;48.760;2.322;2023-04-01T13:01:21;99889.81;;;23.63;33.12
56518;BME280;42419;48.760;2.322;2023-04-01T13:09:16;99890.69;;;23.64;33.00
56518;BME280;42419;48.760;2.322;2023-04-01T13:17:40;99883.16;;;23.69;31.99
56518;BME280;42419;48.760;2.322;2023-04-01T13:22:48;99867.69;;;23.72;31.99
56518;BME280;42419;48.760;2.322;2023-04-01T13:25:44;99871.13;;;23.74;31.65
56518;BME280;42419;48.760;2.322;2023-04-01T13:28:32;99871.13;;;23.74;30.96
56518;BME280;42419;48.760;2.322;2023-04-01T13:33:50;99872.94;;;23.74;30.77
56518;BME280;42419;48.760;2.322;2023-04-01T13:43:00;99847.66;;;23.51;30.48
56518;BME280;42419;48.760;2.322;2023-04-01T13:48:29;99886.34;;;23.61;30.81
56518;BME280;42419;48.760;2.322;2023-04-01T13:51:19;99856.03;;;23.47;30.63
56518;BME280;42419;48.760;2.322;2023-04-01T13:56:41;99874.31;;;23.54;30.41
56518;BME280;42419;48.760;2.322;2023-04-01T14:07:32;99861.25;;;23.36;30.11
56518;BME280;42419;48.760;2.322;2023-04-01T14:10:07;99875.97;;;23.43;30.95
56518;BME280;42419;48.760;2.322;2023-04-01T14:12:44;99869.78;;;23.42;30.35
56518;BME280;42419;48.760;2.322;2023-04-01T14:18:37;99879.84;;;23.39;30.62
56518;BME280;42419;48.760;2.322;2023-04-01T14:23:53;99893.50;;;23.36;31.05
56518;BME280;42419;48.760;2.322;2023-04-01T14:26:54;99883.69;;;23.35;30.60
56518;BME280;42419;48.760;2.322;2023-04-01T14:32:46;99887.47;;;23.32;30.87
56518;BME280;42419;48.760;2.322;2023-04-01T14:49:30;99886.91;;;23.27;30.40
56518;BME280;42419;48.760;2.322;2023-04-01T14:52:05;99866.41;;;23.12;30.39
56518;BME280;42419;48.760;2.322;2023-04-01T14:54:37;99895.91;;;23.26;30.31
56518;BME280;42419;48.760;2.322;2023-04-01T14:57:24;99894.09;;;23.26;29.98
56518;BME280;42419;48.760;2.322;2023-04-01T15:02:57;99895.91;;;23.26;30.56
56518;BME280;42419;48.760;2.322;2023-04-01T15:27:51;99916.75;;;23.08;29.84
56518;BME280;42419;48.760;2.322;2023-04-01T15:35:49;99939.47;;;23.17;29.54
56518;BME280;42419;48.760;2.322;2023-04-01T15:38:29;99941.19;;;23.18;29.72
56518;BME280;42419;48.760;2.322;2023-04-01T16:03:22;99989.94;;;23.26;30.77
56518;BME280;42419;48.760;2.322;2023-04-01T16:11:53;100019.09;;;23.32;31.13
56518;BME280;42419;48.760;2.322;2023-04-01T16:17:22;100031.44;;;23.35;30.68
56518;BME280;42419;48.760;2.322;2023-04-01T16:22:31;100034.81;;;23.38;31.52
56518;BME280;42419;48.760;2.322;2023-04-01T16:25:33;100028.38;;;23.41;31.07
56518;BME280;42419;48.760;2.322;2023-04-01T16:30:58;100020.63;;;23.36;31.30
56518;BME280;42419;48.760;2.322;2023-04-01T16:33:46;100040.25;;;23.51;31.77
56518;BME280;42419;48.760;2.322;2023-04-01T16:41:49;100051.28;;;23.60;31.71
56518;BME280;42419;48.760;2.322;2023-04-01T16:44:20;100056.34;;;23.65;31.78
56518;BME280;42419;48.760;2.322;2023-04-01T16:46:52;100052.81;;;23.64;31.49
56518;BME280;42419;48.760;2.322;2023-04-01T16:49:29;100063.25;;;23.69;31.62
56518;BME280;42419;48.760;2.322;2023-04-01T16:59:53;100075.22;;;23.78;32.18
56518;BME280;42419;48.760;2.322;2023-04-01T17:02:25;100081.25;;;23.81;32.01
56518;BME280;42419;48.760;2.322;2023-04-01T17:07:58;100079.31;;;23.83;31.79
56518;BME280;42419;48.760;2.322;2023-04-01T17:19:17;100083.28;;;23.92;31.96
56518;BME280;42419;48.760;2.322;2023-04-01T17:24:58;100096.63;;;23.93;31.56
56518;BME280;42419;48.760;2.322;2023-04-01T17:30:31;100098.44;;;23.93;31.49
56518;BME280;42419;48.760;2.322;2023-04-01T17:33:08;100092.97;;;23.94;31.04
56518;BME280;42419;48.760;2.322;2023-04-01T17:35:49;100104.81;;;23.92;31.35
56518;BME280;42419;48.760;2.322;2023-04-01T17:38:34;100101.69;;;23.84;31.44
56518;BME280;42419;48.760;2.322;2023-04-01T17:41:28;100118.03;;;23.95;31.08
56518;BME280;42419;48.760;2.322;2023-04-01T17:44:15;100109.19;;;23.93;31.16
56518;BME280;42419;48.760;2.322;2023-04-01T17:49:18;100126.97;;;23.95;31.06
56518;BME280;42419;48.760;2.322;2023-04-01T17:51:59;100137.59;;;23.97;30.98
56518;BME280;42419;48.760;2.322;2023-04-01T17:54:41;100135.78;;;23.97;31.22
56518;BME280;42419;48.760;2.322;2023-04-01T17:57:45;100141.06;;;23.99;31.39
56518;BME280;42419;48.760;2.322;2023-04-01T18:06:05;100141.28;;;23.96;33.75
56518;BME280;42419;48.760;2.322;2023-04-01T18:19:14;100171.19;;;24.18;34.27
56518;BME280;42419;48.760;2.322;2023-04-01T18:21:51;100172.78;;;24.21;33.86
56518;BME280;42419;48.760;2.322;2023-04-01T18:29:54;100127.34;;;23.89;33.74
56518;BME280;42419;48.760;2.322;2023-04-01T18:38:11;100190.06;;;24.31;33.72
56518;BME280;42419;48.760;2.322;2023-04-01T18:40:43;100204.09;;;24.36;34.67
56518;BME280;42419;48.760;2.322;2023-04-01T18:45:53;100209.91;;;24.42;34.47
56518;BME280;42419;48.760;2.322;2023-04-01T18:51:22;100214.53;;;24.40;34.63
56518;BME280;42419;48.760;2.322;2023-04-01T18:53:57;100217.78;;;24.45;34.34
56518;BME280;42419;48.760;2.322;2023-04-01T18:56:41;100229.31;;;24.47;34.45
56518;BME280;42419;48.760;2.322;2023-04-01T18:59:12;100232.91;;;24.48;33.78
56518;BME280;42419;48.760;2.322;2023-04-01T19:01:51;100229.41;;;24.46;34.72
56518;BME280;42419;48.760;2.322;2023-04-01T19:04:33;100241.63;;;24.51;34.46
56518;BME280;42419;48.760;2.322;2023-04-01T19:09:49;100250.47;;;24.53;35.08
56518;BME280;42419;48.760;2.322;2023-04-01T19:20:51;100273.94;;;24.51;32.67
56518;BME280;42419;48.760;2.322;2023-04-01T19:26:39;100225.06;;;24.16;33.37
56518;BME280;42419;48.760;2.322;2023-04-01T19:29:17;100273.75;;;24.40;33.48
56518;BME280;42419;48.760;2.322;2023-04-01T19:37:08;100286.91;;;24.45;33.51
56518;BME280;42419;48.760;2.322;2023-04-01T19:40:04;100294.00;;;24.46;33.20
56518;BME280;42419;48.760;2.322;2023-04-01T19:43:03;100308.44;;;24.45;33.85
56518;BME280;42419;48.760;2.322;2023-04-01T19:46:01;100301.19;;;24.45;33.87
56518;BME280;42419;48.760;2.322;2023-04-01T19:54:11;100321.91;;;24.45;33.61
56518;BME280;42419;48.760;2.322;2023-04-01T19:56:47;100326.41;;;24.44;33.85
56518;BME280;42419;48.760;2.322;2023-04-01T20:02:31;100317.69;;;24.41;34.54
56518;BME280;42419;48.760;2.322;2023-04-01T20:05:04;100328.84;;;24.49;34.59
56518;BME280;42419;48.760;2.322;2023-04-01T20:07:48;100329.59;;;24.51;34.16
56518;BME280;42419;48.760;2.322;2023-04-01T20:10:25;100321.97;;;24.43;34.40
56518;BME280;42419;48.760;2.322;2023-04-01T20:13:13;100342.97;;;24.52;34.62
56518;BME280;42419;48.760;2.322;2023-04-01T20:15:45;100340.19;;;24.54;35.17
56518;BME280;42419;48.760;2.322;2023-04-01T20:18:25;100349.88;;;24.56;35.71
56518;BME280;42419;48.760;2.322;2023-04-01T20:21:00;100351.59;;;24.57;34.79
56518;BME280;42419;48.760;2.322;2023-04-01T20:23:50;100363.03;;;24.61;35.18
56518;BME280;42419;48.760;2.322;2023-04-01T20:26:23;100360.53;;;24.58;35.03
56518;BME280;42419;48.760;2.322;2023-04-01T20:31:29;100375.72;;;24.59;35.21
56518;BME280;42419;48.760;2.322;2023-04-01T20:37:00;100380.06;;;24.62;35.99
56518;BME280;42419;48.760;2.322;2023-04-01T20:42:05;100389.00;;;24.62;35.63
56518;BME280;42419;48.760;2.322;2023-04-01T20:44:46;100370.06;;;24.49;35.57
56518;BME280;42419;48.760;2.322;2023-04-01T20:53:29;100406.75;;;24.65;35.55
56518;BME280;42419;48.760;2.322;2023-04-01T20:59:09;100408.50;;;24.66;35.70
56518;BME280;42419;48.760;2.322;2023-04-01T21:01:46;100377.53;;;24.44;35.65
56518;BME280;42419;48.760;2.322;2023-04-01T21:10:39;100422.53;;;24.71;35.72
56518;BME280;42419;48.760;2.322;2023-04-01T21:18:38;100426.97;;;24.72;35.03
56518;BME280;42419;48.760;2.322;2023-04-01T21:26:40;100437.75;;;24.72;35.04
56518;BME280;42419;48.760;2.322;2023-04-01T21:34:49;100436.38;;;24.65;35.29
56518;BME280;42419;48.760;2.322;2023-04-01T21:37:43;100449.47;;;24.71;35.00
56518;BME280;42419;48.760;2.322;2023-04-01T22:04:49;100464.84;;;24.69;34.42
56518;BME280;42419;48.760;2.322;2023-04-01T22:07:21;100464.84;;;24.69;34.38
56518;BME280;42419;48.760;2.322;2023-04-01T22:10:00;100474.44;;;24.73;34.53
56518;BME280;42419;48.760;2.322;2023-04-01T22:12:48;100409.25;;;24.39;34.52